This is the latest recevied weather packets stored in our database for station/object CE3TDM-12. If no packets are shown the sender has not sent any weather packets the latest 10 day(s).
| Time | Temp. | Humidity | Pressure | Rain* | Wind** | Luminosity | Snow |
|---|---|---|---|---|---|---|---|
| 1787841220 | 7.22° C | 52% | 770.8 hPa | - | - | - | - |
| 1787840920 | 7.22° C | 54% | 771.2 hPa | - | - | - | - |
| 1787840619 | 7.78° C | 53% | 771.1 hPa | - | - | - | - |
| 1787840319 | 8.33° C | 52% | 771 hPa | - | - | - | - |
| 1787840018 | 10° C | 50% | 771.1 hPa | - | - | - | - |
| 1787839718 | 9.44° C | 50% | 771.1 hPa | - | - | - | - |
| 1787839417 | 7.78° C | 53% | 771.2 hPa | - | - | - | - |
| 1787839117 | 7.22° C | 53% | 770.8 hPa | - | - | - | - |
| 1787838816 | 7.78° C | 52% | 771 hPa | - | - | - | - |
| 1787838516 | 8.33° C | 51% | 771.1 hPa | - | - | - | - |
| 1787838215 | 8.89° C | 50% | 770.9 hPa | - | - | - | - |
| 1787837915 | 8.89° C | 51% | 771.2 hPa | - | - | - | - |
| 1787837615 | 8.33° C | 51% | 771.1 hPa | - | - | - | - |
| 1787837314 | 8.33° C | 50% | 770.9 hPa | - | - | - | - |
| 1787837014 | 8.89° C | 50% | 771.3 hPa | - | - | - | - |
| 1787836713 | 8.33° C | 51% | 770.8 hPa | - | - | - | - |
| 1787836412 | 7.22° C | 51% | 771.2 hPa | - | - | - | - |
| 1787836111 | 6.67° C | 52% | 771.4 hPa | - | - | - | - |
| 1787835811 | 7.22° C | 51% | 771.2 hPa | - | - | - | - |
| 1787835510 | 7.22° C | 51% | 771 hPa | - | - | - | - |
| 1787835209 | 6.11° C | 52% | 771 hPa | - | - | - | - |
| 1787834909 | 4.44° C | 52% | 771.3 hPa | - | - | - | - |
| 1787834608 | 4.44° C | 52% | 771.1 hPa | - | - | - | - |
| 1787834308 | 4.44° C | 51% | 770.9 hPa | - | - | - | - |
| 1787834006 | 4.44° C | 51% | 771 hPa | - | - | - | - |
* Rain since midnight (hover to see other rain measurements)
** Current wind speed in m/s (hover to see current wind gust speed)